sensor_id;sensor_type;location;lat;lon;timestamp;P1;durP1;ratioP1;P2;durP2;ratioP2
69744;SDS011;57015;50.120;-5.168;2023-11-21T00:00:48;13.00;;;1.37;;
69744;SDS011;57015;50.120;-5.168;2023-11-21T00:03:13;8.37;;;1.03;;
69744;SDS011;57015;50.120;-5.168;2023-11-21T00:05:40;10.50;;;0.85;;
69744;SDS011;57015;50.120;-5.168;2023-11-21T00:08:08;8.47;;;1.07;;
69744;SDS011;57015;50.120;-5.168;2023-11-21T00:10:34;7.07;;;1.10;;
69744;SDS011;57015;50.120;-5.168;2023-11-21T00:13:00;11.43;;;1.20;;
69744;SDS011;57015;50.120;-5.168;2023-11-21T00:15:27;12.13;;;2.20;;
69744;SDS011;57015;50.120;-5.168;2023-11-21T00:17:53;11.50;;;1.47;;
69744;SDS011;57015;50.120;-5.168;2023-11-21T00:20:18;8.60;;;0.80;;
69744;SDS011;57015;50.120;-5.168;2023-11-21T00:22:43;6.25;;;0.80;;
69744;SDS011;57015;50.120;-5.168;2023-11-21T00:25:09;7.40;;;0.90;;
69744;SDS011;57015;50.120;-5.168;2023-11-21T00:27:35;7.00;;;0.80;;
69744;SDS011;57015;50.120;-5.168;2023-11-21T00:30:01;7.13;;;0.80;;
69744;SDS011;57015;50.120;-5.168;2023-11-21T00:32:29;15.52;;;2.35;;
69744;SDS011;57015;50.120;-5.168;2023-11-21T00:34:54;7.83;;;1.53;;
69744;SDS011;57015;50.120;-5.168;2023-11-21T00:37:20;8.03;;;2.10;;
69744;SDS011;57015;50.120;-5.168;2023-11-21T00:39:45;7.57;;;1.13;;
69744;SDS011;57015;50.120;-5.168;2023-11-21T00:42:10;7.30;;;1.20;;
69744;SDS011;57015;50.120;-5.168;2023-11-21T00:44:37;11.07;;;1.05;;
69744;SDS011;57015;50.120;-5.168;2023-11-21T00:47:03;6.15;;;1.05;;
69744;SDS011;57015;50.120;-5.168;2023-11-21T00:49:28;8.37;;;1.30;;
69744;SDS011;57015;50.120;-5.168;2023-11-21T00:51:54;15.03;;;1.13;;
69744;SDS011;57015;50.120;-5.168;2023-11-21T00:54:19;8.83;;;1.27;;
69744;SDS011;57015;50.120;-5.168;2023-11-21T00:56:45;7.83;;;1.07;;
69744;SDS011;57015;50.120;-5.168;2023-11-21T00:59:12;9.63;;;1.58;;
69744;SDS011;57015;50.120;-5.168;2023-11-21T01:01:37;9.93;;;1.20;;
69744;SDS011;57015;50.120;-5.168;2023-11-21T01:04:03;9.53;;;1.33;;
69744;SDS011;57015;50.120;-5.168;2023-11-21T01:06:28;5.75;;;1.20;;
69744;SDS011;57015;50.120;-5.168;2023-11-21T01:08:55;9.07;;;1.00;;
69744;SDS011;57015;50.120;-5.168;2023-11-21T01:11:20;13.05;;;1.30;;
69744;SDS011;57015;50.120;-5.168;2023-11-21T01:13:46;12.10;;;1.10;;
69744;SDS011;57015;50.120;-5.168;2023-11-21T01:16:11;10.93;;;1.80;;
69744;SDS011;57015;50.120;-5.168;2023-11-21T01:18:36;7.00;;;1.10;;
69744;SDS011;57015;50.120;-5.168;2023-11-21T01:21:02;10.02;;;1.23;;
69744;SDS011;57015;50.120;-5.168;2023-11-21T01:23:27;6.93;;;1.30;;
69744;SDS011;57015;50.120;-5.168;2023-11-21T01:25:54;11.30;;;1.37;;
69744;SDS011;57015;50.120;-5.168;2023-11-21T01:28:20;8.02;;;1.20;;
69744;SDS011;57015;50.120;-5.168;2023-11-21T01:30:46;9.67;;;1.07;;
69744;SDS011;57015;50.120;-5.168;2023-11-21T01:33:11;6.40;;;1.33;;
69744;SDS011;57015;50.120;-5.168;2023-11-21T01:35:37;8.60;;;1.23;;
69744;SDS011;57015;50.120;-5.168;2023-11-21T01:38:02;13.48;;;1.52;;
69744;SDS011;57015;50.120;-5.168;2023-11-21T01:40:29;10.80;;;1.20;;
69744;SDS011;57015;50.120;-5.168;2023-11-21T01:42:55;8.82;;;1.17;;
69744;SDS011;57015;50.120;-5.168;2023-11-21T01:45:21;12.70;;;1.50;;
69744;SDS011;57015;50.120;-5.168;2023-11-21T01:47:46;10.27;;;1.10;;
69744;SDS011;57015;50.120;-5.168;2023-11-21T01:50:15;9.47;;;1.70;;
69744;SDS011;57015;50.120;-5.168;2023-11-21T01:52:42;7.57;;;1.10;;
69744;SDS011;57015;50.120;-5.168;2023-11-21T01:55:09;6.43;;;1.13;;
69744;SDS011;57015;50.120;-5.168;2023-11-21T01:57:35;10.85;;;0.90;;
69744;SDS011;57015;50.120;-5.168;2023-11-21T02:00:03;15.38;;;2.53;;
69744;SDS011;57015;50.120;-5.168;2023-11-21T02:02:46;11.68;;;1.40;;
69744;SDS011;57015;50.120;-5.168;2023-11-21T02:05:13;10.20;;;1.63;;
69744;SDS011;57015;50.120;-5.168;2023-11-21T02:07:40;8.57;;;1.87;;
69744;SDS011;57015;50.120;-5.168;2023-11-21T02:10:07;7.07;;;1.30;;
69744;SDS011;57015;50.120;-5.168;2023-11-21T02:12:33;11.13;;;1.42;;
69744;SDS011;57015;50.120;-5.168;2023-11-21T02:15:04;8.88;;;1.15;;
69744;SDS011;57015;50.120;-5.168;2023-11-21T02:17:34;15.60;;;1.58;;
69744;SDS011;57015;50.120;-5.168;2023-11-21T02:20:00;20.33;;;2.63;;
69744;SDS011;57015;50.120;-5.168;2023-11-21T02:22:26;8.43;;;1.55;;
69744;SDS011;57015;50.120;-5.168;2023-11-21T02:24:56;9.65;;;1.83;;
69744;SDS011;57015;50.120;-5.168;2023-11-21T02:27:22;10.40;;;1.48;;
69744;SDS011;57015;50.120;-5.168;2023-11-21T02:29:48;13.93;;;1.67;;
69744;SDS011;57015;50.120;-5.168;2023-11-21T02:32:14;13.47;;;1.77;;
69744;SDS011;57015;50.120;-5.168;2023-11-21T02:34:39;13.20;;;1.80;;
69744;SDS011;57015;50.120;-5.168;2023-11-21T02:37:04;12.30;;;1.60;;
69744;SDS011;57015;50.120;-5.168;2023-11-21T02:39:31;13.47;;;2.03;;
69744;SDS011;57015;50.120;-5.168;2023-11-21T02:41:57;4.15;;;0.82;;
69744;SDS011;57015;50.120;-5.168;2023-11-21T02:44:22;7.93;;;1.20;;
69744;SDS011;57015;50.120;-5.168;2023-11-21T02:46:47;11.93;;;1.33;;
69744;SDS011;57015;50.120;-5.168;2023-11-21T02:49:13;10.63;;;2.30;;
69744;SDS011;57015;50.120;-5.168;2023-11-21T02:51:38;13.43;;;1.90;;
69744;SDS011;57015;50.120;-5.168;2023-11-21T02:54:04;7.47;;;1.50;;
69744;SDS011;57015;50.120;-5.168;2023-11-21T02:56:32;11.43;;;1.83;;
69744;SDS011;57015;50.120;-5.168;2023-11-21T02:58:59;11.43;;;1.52;;
69744;SDS011;57015;50.120;-5.168;2023-11-21T03:01:24;9.18;;;1.52;;
69744;SDS011;57015;50.120;-5.168;2023-11-21T03:03:50;10.63;;;2.17;;
69744;SDS011;57015;50.120;-5.168;2023-11-21T03:06:18;7.25;;;1.13;;
69744;SDS011;57015;50.120;-5.168;2023-11-21T03:08:44;15.40;;;1.38;;
69744;SDS011;57015;50.120;-5.168;2023-11-21T03:11:09;6.97;;;1.70;;
69744;SDS011;57015;50.120;-5.168;2023-11-21T03:13:35;8.20;;;1.10;;
69744;SDS011;57015;50.120;-5.168;2023-11-21T03:16:00;10.77;;;1.97;;
69744;SDS011;57015;50.120;-5.168;2023-11-21T03:18:25;9.10;;;1.53;;
69744;SDS011;57015;50.120;-5.168;2023-11-21T03:20:54;12.00;;;2.17;;
69744;SDS011;57015;50.120;-5.168;2023-11-21T03:23:19;10.15;;;1.65;;
69744;SDS011;57015;50.120;-5.168;2023-11-21T03:25:45;13.30;;;2.20;;
69744;SDS011;57015;50.120;-5.168;2023-11-21T03:28:10;9.65;;;1.98;;
69744;SDS011;57015;50.120;-5.168;2023-11-21T03:30:36;11.45;;;1.90;;
69744;SDS011;57015;50.120;-5.168;2023-11-21T03:33:01;19.20;;;1.80;;
69744;SDS011;57015;50.120;-5.168;2023-11-21T03:35:26;9.13;;;1.60;;
69744;SDS011;57015;50.120;-5.168;2023-11-21T03:37:53;22.00;;;2.08;;
69744;SDS011;57015;50.120;-5.168;2023-11-21T03:40:18;16.53;;;2.00;;
69744;SDS011;57015;50.120;-5.168;2023-11-21T03:42:43;14.77;;;1.87;;
69744;SDS011;57015;50.120;-5.168;2023-11-21T03:45:09;14.03;;;1.97;;
69744;SDS011;57015;50.120;-5.168;2023-11-21T03:47:34;13.77;;;1.90;;
69744;SDS011;57015;50.120;-5.168;2023-11-21T03:50:00;16.30;;;2.17;;
69744;SDS011;57015;50.120;-5.168;2023-11-21T03:52:25;16.40;;;2.73;;
69744;SDS011;57015;50.120;-5.168;2023-11-21T03:54:52;11.93;;;2.25;;
69744;SDS011;57015;50.120;-5.168;2023-11-21T03:57:17;13.30;;;2.03;;
69744;SDS011;57015;50.120;-5.168;2023-11-21T03:59:43;15.18;;;1.90;;
69744;SDS011;57015;50.120;-5.168;2023-11-21T04:02:08;11.13;;;2.05;;
69744;SDS011;57015;50.120;-5.168;2023-11-21T04:04:34;17.53;;;2.03;;
69744;SDS011;57015;50.120;-5.168;2023-11-21T04:07:03;12.30;;;2.20;;
69744;SDS011;57015;50.120;-5.168;2023-11-21T04:09:29;19.58;;;2.67;;
69744;SDS011;57015;50.120;-5.168;2023-11-21T04:11:54;19.50;;;2.33;;
69744;SDS011;57015;50.120;-5.168;2023-11-21T04:14:20;23.63;;;3.38;;
69744;SDS011;57015;50.120;-5.168;2023-11-21T04:16:46;14.80;;;2.03;;
69744;SDS011;57015;50.120;-5.168;2023-11-21T04:19:11;16.80;;;2.90;;
69744;SDS011;57015;50.120;-5.168;2023-11-21T04:21:39;13.35;;;2.03;;
69744;SDS011;57015;50.120;-5.168;2023-11-21T04:24:05;14.82;;;1.77;;
69744;SDS011;57015;50.120;-5.168;2023-11-21T04:26:31;23.52;;;2.17;;
69744;SDS011;57015;50.120;-5.168;2023-11-21T04:28:56;15.18;;;2.30;;
69744;SDS011;57015;50.120;-5.168;2023-11-21T04:31:22;17.77;;;2.80;;
69744;SDS011;57015;50.120;-5.168;2023-11-21T04:33:47;22.17;;;2.67;;
69744;SDS011;57015;50.120;-5.168;2023-11-21T04:36:13;17.73;;;2.40;;
69744;SDS011;57015;50.120;-5.168;2023-11-21T04:38:38;18.63;;;3.53;;
69744;SDS011;57015;50.120;-5.168;2023-11-21T04:41:03;19.57;;;2.10;;
69744;SDS011;57015;50.120;-5.168;2023-11-21T04:43:29;19.90;;;2.17;;
69744;SDS011;57015;50.120;-5.168;2023-11-21T04:45:54;20.63;;;2.15;;
69744;SDS011;57015;50.120;-5.168;2023-11-21T04:48:20;16.23;;;2.43;;
69744;SDS011;57015;50.120;-5.168;2023-11-21T04:50:45;16.60;;;2.10;;
69744;SDS011;57015;50.120;-5.168;2023-11-21T04:53:11;22.80;;;3.13;;
69744;SDS011;57015;50.120;-5.168;2023-11-21T04:55:39;24.02;;;2.22;;
69744;SDS011;57015;50.120;-5.168;2023-11-21T04:58:04;17.80;;;2.57;;
69744;SDS011;57015;50.120;-5.168;2023-11-21T05:00:30;19.70;;;2.03;;
69744;SDS011;57015;50.120;-5.168;2023-11-21T05:02:55;20.02;;;2.50;;
69744;SDS011;57015;50.120;-5.168;2023-11-21T05:05:20;21.13;;;2.53;;
69744;SDS011;57015;50.120;-5.168;2023-11-21T05:07:46;23.63;;;3.40;;
69744;SDS011;57015;50.120;-5.168;2023-11-21T05:10:11;17.70;;;2.53;;
69744;SDS011;57015;50.120;-5.168;2023-11-21T05:12:37;20.20;;;3.10;;
69744;SDS011;57015;50.120;-5.168;2023-11-21T05:15:06;23.52;;;3.42;;
69744;SDS011;57015;50.120;-5.168;2023-11-21T05:17:35;20.25;;;3.10;;
69744;SDS011;57015;50.120;-5.168;2023-11-21T05:20:01;17.73;;;2.08;;
69744;SDS011;57015;50.120;-5.168;2023-11-21T05:22:29;16.23;;;2.53;;
69744;SDS011;57015;50.120;-5.168;2023-11-21T05:24:55;16.40;;;2.70;;
69744;SDS011;57015;50.120;-5.168;2023-11-21T05:27:20;16.58;;;2.72;;
69744;SDS011;57015;50.120;-5.168;2023-11-21T05:29:45;24.57;;;2.97;;
69744;SDS011;57015;50.120;-5.168;2023-11-21T05:32:11;15.70;;;2.27;;
69744;SDS011;57015;50.120;-5.168;2023-11-21T05:34:36;16.97;;;2.27;;
69744;SDS011;57015;50.120;-5.168;2023-11-21T05:37:02;21.07;;;2.83;;
69744;SDS011;57015;50.120;-5.168;2023-11-21T05:39:27;20.37;;;3.00;;
69744;SDS011;57015;50.120;-5.168;2023-11-21T05:41:53;14.10;;;2.20;;
69744;SDS011;57015;50.120;-5.168;2023-11-21T05:44:18;16.83;;;2.60;;
69744;SDS011;57015;50.120;-5.168;2023-11-21T05:46:44;19.33;;;2.53;;
69744;SDS011;57015;50.120;-5.168;2023-11-21T05:49:09;20.13;;;2.37;;
69744;SDS011;57015;50.120;-5.168;2023-11-21T05:51:35;14.70;;;2.30;;
69744;SDS011;57015;50.120;-5.168;2023-11-21T05:54:02;21.00;;;2.80;;
69744;SDS011;57015;50.120;-5.168;2023-11-21T05:56:27;23.23;;;2.40;;
69744;SDS011;57015;50.120;-5.168;2023-11-21T05:58:52;13.35;;;1.77;;
69744;SDS011;57015;50.120;-5.168;2023-11-21T06:01:18;23.50;;;2.60;;
69744;SDS011;57015;50.120;-5.168;2023-11-21T06:03:44;20.73;;;2.87;;
69744;SDS011;57015;50.120;-5.168;2023-11-21T06:06:10;14.00;;;2.65;;
69744;SDS011;57015;50.120;-5.168;2023-11-21T06:08:36;17.63;;;2.10;;
69744;SDS011;57015;50.120;-5.168;2023-11-21T06:11:01;15.63;;;1.88;;
69744;SDS011;57015;50.120;-5.168;2023-11-21T06:13:26;16.40;;;2.60;;
69744;SDS011;57015;50.120;-5.168;2023-11-21T06:15:52;17.13;;;2.33;;
69744;SDS011;57015;50.120;-5.168;2023-11-21T06:18:18;17.52;;;2.40;;
69744;SDS011;57015;50.120;-5.168;2023-11-21T06:20:46;12.70;;;1.70;;
69744;SDS011;57015;50.120;-5.168;2023-11-21T06:23:11;19.50;;;2.40;;
69744;SDS011;57015;50.120;-5.168;2023-11-21T06:25:37;19.08;;;2.00;;
69744;SDS011;57015;50.120;-5.168;2023-11-21T06:28:03;19.80;;;1.73;;
69744;SDS011;57015;50.120;-5.168;2023-11-21T06:30:28;15.20;;;2.05;;
69744;SDS011;57015;50.120;-5.168;2023-11-21T06:32:54;23.35;;;2.85;;
69744;SDS011;57015;50.120;-5.168;2023-11-21T06:35:19;12.93;;;1.63;;
69744;SDS011;57015;50.120;-5.168;2023-11-21T06:37:45;16.92;;;1.65;;
69744;SDS011;57015;50.120;-5.168;2023-11-21T06:40:12;16.33;;;2.27;;
69744;SDS011;57015;50.120;-5.168;2023-11-21T06:42:40;13.25;;;2.00;;
69744;SDS011;57015;50.120;-5.168;2023-11-21T06:45:06;19.33;;;2.08;;
69744;SDS011;57015;50.120;-5.168;2023-11-21T06:47:32;14.70;;;2.10;;
69744;SDS011;57015;50.120;-5.168;2023-11-21T06:49:58;15.97;;;2.67;;
69744;SDS011;57015;50.120;-5.168;2023-11-21T06:52:23;17.70;;;1.88;;
69744;SDS011;57015;50.120;-5.168;2023-11-21T06:54:49;15.57;;;1.63;;
69744;SDS011;57015;50.120;-5.168;2023-11-21T06:57:14;10.43;;;1.77;;
69744;SDS011;57015;50.120;-5.168;2023-11-21T06:59:40;11.97;;;1.60;;
69744;SDS011;57015;50.120;-5.168;2023-11-21T07:02:05;11.33;;;1.50;;
69744;SDS011;57015;50.120;-5.168;2023-11-21T07:04:32;16.23;;;1.52;;
69744;SDS011;57015;50.120;-5.168;2023-11-21T07:06:57;9.60;;;0.93;;
69744;SDS011;57015;50.120;-5.168;2023-11-21T07:09:23;13.37;;;1.43;;
69744;SDS011;57015;50.120;-5.168;2023-11-21T07:11:49;11.83;;;1.63;;
69744;SDS011;57015;50.120;-5.168;2023-11-21T07:14:14;20.13;;;2.17;;
69744;SDS011;57015;50.120;-5.168;2023-11-21T07:16:41;17.63;;;1.58;;
69744;SDS011;57015;50.120;-5.168;2023-11-21T07:19:06;11.67;;;1.57;;
69744;SDS011;57015;50.120;-5.168;2023-11-21T07:21:32;16.10;;;2.60;;
69744;SDS011;57015;50.120;-5.168;2023-11-21T07:23:59;17.48;;;2.33;;
69744;SDS011;57015;50.120;-5.168;2023-11-21T07:26:26;12.02;;;1.52;;
69744;SDS011;57015;50.120;-5.168;2023-11-21T07:28:51;15.27;;;2.07;;
69744;SDS011;57015;50.120;-5.168;2023-11-21T07:31:17;13.65;;;1.70;;
69744;SDS011;57015;50.120;-5.168;2023-11-21T07:33:42;17.20;;;2.33;;
69744;SDS011;57015;50.120;-5.168;2023-11-21T07:36:08;18.30;;;2.13;;
69744;SDS011;57015;50.120;-5.168;2023-11-21T07:38:33;10.33;;;1.20;;
69744;SDS011;57015;50.120;-5.168;2023-11-21T07:40:59;10.97;;;1.10;;
69744;SDS011;57015;50.120;-5.168;2023-11-21T07:43:26;12.02;;;1.02;;
69744;SDS011;57015;50.120;-5.168;2023-11-21T07:45:52;9.20;;;0.98;;
69744;SDS011;57015;50.120;-5.168;2023-11-21T07:48:17;9.27;;;1.33;;
69744;SDS011;57015;50.120;-5.168;2023-11-21T07:50:42;6.47;;;1.07;;
69744;SDS011;57015;50.120;-5.168;2023-11-21T07:53:08;7.47;;;0.80;;
69744;SDS011;57015;50.120;-5.168;2023-11-21T07:55:34;8.57;;;0.75;;
69744;SDS011;57015;50.120;-5.168;2023-11-21T07:58:01;10.98;;;2.60;;
69744;SDS011;57015;50.120;-5.168;2023-11-21T08:00:26;14.93;;;1.30;;
69744;SDS011;57015;50.120;-5.168;2023-11-21T08:02:55;4.78;;;0.52;;
69744;SDS011;57015;50.120;-5.168;2023-11-21T08:05:20;6.63;;;0.70;;
69744;SDS011;57015;50.120;-5.168;2023-11-21T08:07:45;5.90;;;0.50;;
69744;SDS011;57015;50.120;-5.168;2023-11-21T08:10:11;7.67;;;0.90;;
69744;SDS011;57015;50.120;-5.168;2023-11-21T08:12:36;7.13;;;0.73;;
69744;SDS011;57015;50.120;-5.168;2023-11-21T08:15:02;11.20;;;0.63;;
69744;SDS011;57015;50.120;-5.168;2023-11-21T08:17:28;4.93;;;0.55;;
69744;SDS011;57015;50.120;-5.168;2023-11-21T08:19:54;4.47;;;1.30;;
69744;SDS011;57015;50.120;-5.168;2023-11-21T08:22:19;5.40;;;0.40;;
69744;SDS011;57015;50.120;-5.168;2023-11-21T08:24:45;7.03;;;0.88;;
69744;SDS011;57015;50.120;-5.168;2023-11-21T08:27:11;6.35;;;0.60;;
69744;SDS011;57015;50.120;-5.168;2023-11-21T08:29:41;5.00;;;0.60;;
69744;SDS011;57015;50.120;-5.168;2023-11-21T08:32:07;6.63;;;0.40;;
69744;SDS011;57015;50.120;-5.168;2023-11-21T08:34:32;3.08;;;0.28;;
69744;SDS011;57015;50.120;-5.168;2023-11-21T08:36:58;3.90;;;0.40;;
69744;SDS011;57015;50.120;-5.168;2023-11-21T08:39:23;4.47;;;0.23;;
69744;SDS011;57015;50.120;-5.168;2023-11-21T08:41:49;3.20;;;0.40;;
69744;SDS011;57015;50.120;-5.168;2023-11-21T08:44:16;7.88;;;0.30;;
69744;SDS011;57015;50.120;-5.168;2023-11-21T08:46:43;4.40;;;0.70;;
69744;SDS011;57015;50.120;-5.168;2023-11-21T08:49:11;5.90;;;0.45;;
69744;SDS011;57015;50.120;-5.168;2023-11-21T08:51:37;3.33;;;0.30;;
69744;SDS011;57015;50.120;-5.168;2023-11-21T08:54:03;4.93;;;0.63;;
69744;SDS011;57015;50.120;-5.168;2023-11-21T08:56:32;3.53;;;0.38;;
69744;SDS011;57015;50.120;-5.168;2023-11-21T08:58:58;5.47;;;0.43;;
69744;SDS011;57015;50.120;-5.168;2023-11-21T09:01:25;4.55;;;0.50;;
69744;SDS011;57015;50.120;-5.168;2023-11-21T09:03:51;5.13;;;0.40;;
69744;SDS011;57015;50.120;-5.168;2023-11-21T09:06:16;4.17;;;0.27;;
69744;SDS011;57015;50.120;-5.168;2023-11-21T09:08:41;3.70;;;0.67;;
69744;SDS011;57015;50.120;-5.168;2023-11-21T09:11:07;6.15;;;0.95;;
69744;SDS011;57015;50.120;-5.168;2023-11-21T09:13:33;5.45;;;0.40;;
69744;SDS011;57015;50.120;-5.168;2023-11-21T09:15:58;4.67;;;0.40;;
69744;SDS011;57015;50.120;-5.168;2023-11-21T09:18:24;7.53;;;0.80;;
69744;SDS011;57015;50.120;-5.168;2023-11-21T09:20:49;4.17;;;0.30;;
69744;SDS011;57015;50.120;-5.168;2023-11-21T09:23:14;6.30;;;0.80;;
69744;SDS011;57015;50.120;-5.168;2023-11-21T09:25:40;4.30;;;0.43;;
69744;SDS011;57015;50.120;-5.168;2023-11-21T09:28:06;2.90;;;0.40;;
69744;SDS011;57015;50.120;-5.168;2023-11-21T09:30:33;7.00;;;0.45;;
69744;SDS011;57015;50.120;-5.168;2023-11-21T09:33:02;3.17;;;0.60;;
69744;SDS011;57015;50.120;-5.168;2023-11-21T09:35:27;6.18;;;1.35;;
69744;SDS011;57015;50.120;-5.168;2023-11-21T09:37:53;4.30;;;0.30;;
69744;SDS011;57015;50.120;-5.168;2023-11-21T09:40:20;2.95;;;0.43;;
69744;SDS011;57015;50.120;-5.168;2023-11-21T09:42:56;5.05;;;0.40;;
69744;SDS011;57015;50.120;-5.168;2023-11-21T09:45:26;7.55;;;1.05;;
69744;SDS011;57015;50.120;-5.168;2023-11-21T09:47:59;2.27;;;0.30;;
69744;SDS011;57015;50.120;-5.168;2023-11-21T09:50:24;2.33;;;0.45;;
69744;SDS011;57015;50.120;-5.168;2023-11-21T09:52:55;6.83;;;0.50;;
69744;SDS011;57015;50.120;-5.168;2023-11-21T09:55:26;4.95;;;0.40;;
69744;SDS011;57015;50.120;-5.168;2023-11-21T09:57:53;5.70;;;0.70;;
69744;SDS011;57015;50.120;-5.168;2023-11-21T10:00:19;5.65;;;1.42;;
69744;SDS011;57015;50.120;-5.168;2023-11-21T10:02:48;8.73;;;0.50;;
69744;SDS011;57015;50.120;-5.168;2023-11-21T10:05:15;4.00;;;1.02;;
69744;SDS011;57015;50.120;-5.168;2023-11-21T10:07:43;5.13;;;0.80;;
69744;SDS011;57015;50.120;-5.168;2023-11-21T10:10:10;3.22;;;0.38;;
69744;SDS011;57015;50.120;-5.168;2023-11-21T10:12:35;6.70;;;1.37;;
69744;SDS011;57015;50.120;-5.168;2023-11-21T10:15:02;4.93;;;0.68;;
69744;SDS011;57015;50.120;-5.168;2023-11-21T10:17:31;3.63;;;0.30;;
69744;SDS011;57015;50.120;-5.168;2023-11-21T10:20:01;3.88;;;0.40;;
69744;SDS011;57015;50.120;-5.168;2023-11-21T10:22:31;3.90;;;0.40;;
69744;SDS011;57015;50.120;-5.168;2023-11-21T10:24:56;10.82;;;0.47;;
69744;SDS011;57015;50.120;-5.168;2023-11-21T10:27:21;7.70;;;0.50;;
69744;SDS011;57015;50.120;-5.168;2023-11-21T10:29:48;7.70;;;0.73;;
69744;SDS011;57015;50.120;-5.168;2023-11-21T10:32:16;4.53;;;0.52;;
69744;SDS011;57015;50.120;-5.168;2023-11-21T10:34:41;3.67;;;0.40;;
69744;SDS011;57015;50.120;-5.168;2023-11-21T10:37:13;4.97;;;1.00;;
69744;SDS011;57015;50.120;-5.168;2023-11-21T10:39:40;6.17;;;0.83;;
69744;SDS011;57015;50.120;-5.168;2023-11-21T10:42:08;6.28;;;0.50;;
69744;SDS011;57015;50.120;-5.168;2023-11-21T10:44:35;4.13;;;0.40;;
69744;SDS011;57015;50.120;-5.168;2023-11-21T10:47:00;4.07;;;0.50;;
69744;SDS011;57015;50.120;-5.168;2023-11-21T10:49:27;3.45;;;0.50;;
69744;SDS011;57015;50.120;-5.168;2023-11-21T10:51:53;3.40;;;0.50;;
69744;SDS011;57015;50.120;-5.168;2023-11-21T10:54:19;2.70;;;0.50;;
69744;SDS011;57015;50.120;-5.168;2023-11-21T10:56:46;3.15;;;0.30;;
69744;SDS011;57015;50.120;-5.168;2023-11-21T10:59:15;6.03;;;0.30;;
69744;SDS011;57015;50.120;-5.168;2023-11-21T11:01:42;6.07;;;0.73;;
69744;SDS011;57015;50.120;-5.168;2023-11-21T11:04:09;5.15;;;0.60;;
69744;SDS011;57015;50.120;-5.168;2023-11-21T11:06:42;5.53;;;0.40;;
69744;SDS011;57015;50.120;-5.168;2023-11-21T11:09:09;2.65;;;0.30;;
69744;SDS011;57015;50.120;-5.168;2023-11-21T11:11:38;3.60;;;0.52;;
69744;SDS011;57015;50.120;-5.168;2023-11-21T11:14:06;5.10;;;0.30;;
69744;SDS011;57015;50.120;-5.168;2023-11-21T11:16:34;6.22;;;0.40;;
69744;SDS011;57015;50.120;-5.168;2023-11-21T11:19:00;3.63;;;0.30;;
69744;SDS011;57015;50.120;-5.168;2023-11-21T11:30:26;3.72;;;0.68;;
69744;SDS011;57015;50.120;-5.168;2023-11-21T11:35:24;3.13;;;0.65;;
69744;SDS011;57015;50.120;-5.168;2023-11-21T11:37:54;2.80;;;0.30;;
69744;SDS011;57015;50.120;-5.168;2023-11-21T11:40:20;4.10;;;0.40;;
69744;SDS011;57015;50.120;-5.168;2023-11-21T11:42:58;4.37;;;0.30;;
69744;SDS011;57015;50.120;-5.168;2023-11-21T11:45:24;3.25;;;0.47;;
69744;SDS011;57015;50.120;-5.168;2023-11-21T11:47:56;1.80;;;0.28;;
69744;SDS011;57015;50.120;-5.168;2023-11-21T11:50:22;2.30;;;0.30;;
69744;SDS011;57015;50.120;-5.168;2023-11-21T11:52:50;4.10;;;0.40;;
69744;SDS011;57015;50.120;-5.168;2023-11-21T11:55:18;3.13;;;0.40;;
69744;SDS011;57015;50.120;-5.168;2023-11-21T11:57:45;5.32;;;0.40;;
69744;SDS011;57015;50.120;-5.168;2023-11-21T12:00:13;3.05;;;0.40;;
69744;SDS011;57015;50.120;-5.168;2023-11-21T12:02:54;4.13;;;0.40;;
69744;SDS011;57015;50.120;-5.168;2023-11-21T12:05:24;2.93;;;0.20;;
69744;SDS011;57015;50.120;-5.168;2023-11-21T12:07:56;3.25;;;0.30;;
69744;SDS011;57015;50.120;-5.168;2023-11-21T12:10:40;4.88;;;1.30;;
69744;SDS011;57015;50.120;-5.168;2023-11-21T12:13:08;1.33;;;0.20;;
69744;SDS011;57015;50.120;-5.168;2023-11-21T12:15:35;2.67;;;0.30;;
69744;SDS011;57015;50.120;-5.168;2023-11-21T12:18:01;4.50;;;0.40;;
69744;SDS011;57015;50.120;-5.168;2023-11-21T12:20:28;5.60;;;0.50;;
69744;SDS011;57015;50.120;-5.168;2023-11-21T12:22:55;3.75;;;0.40;;
69744;SDS011;57015;50.120;-5.168;2023-11-21T12:25:22;5.57;;;0.30;;
69744;SDS011;57015;50.120;-5.168;2023-11-21T12:27:54;4.40;;;0.23;;
69744;SDS011;57015;50.120;-5.168;2023-11-21T12:30:21;3.58;;;0.40;;
69744;SDS011;57015;50.120;-5.168;2023-11-21T12:32:49;2.95;;;0.30;;
69744;SDS011;57015;50.120;-5.168;2023-11-21T12:35:16;3.60;;;0.80;;
69744;SDS011;57015;50.120;-5.168;2023-11-21T12:37:44;4.53;;;0.50;;
69744;SDS011;57015;50.120;-5.168;2023-11-21T12:40:10;2.87;;;0.40;;
69744;SDS011;57015;50.120;-5.168;2023-11-21T12:42:40;3.28;;;0.30;;
69744;SDS011;57015;50.120;-5.168;2023-11-21T12:45:10;5.03;;;0.60;;
69744;SDS011;57015;50.120;-5.168;2023-11-21T12:47:54;5.30;;;0.38;;
69744;SDS011;57015;50.120;-5.168;2023-11-21T12:50:26;1.48;;;0.20;;
69744;SDS011;57015;50.120;-5.168;2023-11-21T12:53:06;5.37;;;0.70;;
69744;SDS011;57015;50.120;-5.168;2023-11-21T12:55:41;3.33;;;0.40;;
69744;SDS011;57015;50.120;-5.168;2023-11-21T12:58:08;5.03;;;0.40;;
69744;SDS011;57015;50.120;-5.168;2023-11-21T13:00:56;5.32;;;0.35;;
69744;SDS011;57015;50.120;-5.168;2023-11-21T13:03:21;4.55;;;0.47;;
69744;SDS011;57015;50.120;-5.168;2023-11-21T13:05:50;5.27;;;0.87;;
69744;SDS011;57015;50.120;-5.168;2023-11-21T13:08:18;5.18;;;0.47;;
69744;SDS011;57015;50.120;-5.168;2023-11-21T13:10:46;3.47;;;0.50;;
69744;SDS011;57015;50.120;-5.168;2023-11-21T13:13:14;4.72;;;0.50;;
69744;SDS011;57015;50.120;-5.168;2023-11-21T13:18:19;2.43;;;0.40;;
69744;SDS011;57015;50.120;-5.168;2023-11-21T13:20:46;4.97;;;0.40;;
69744;SDS011;57015;50.120;-5.168;2023-11-21T13:23:12;3.97;;;0.40;;
69744;SDS011;57015;50.120;-5.168;2023-11-21T13:25:38;5.83;;;0.47;;
69744;SDS011;57015;50.120;-5.168;2023-11-21T13:28:06;6.57;;;0.73;;
69744;SDS011;57015;50.120;-5.168;2023-11-21T13:30:31;3.63;;;0.40;;
69744;SDS011;57015;50.120;-5.168;2023-11-21T13:33:03;5.93;;;0.50;;
69744;SDS011;57015;50.120;-5.168;2023-11-21T13:35:33;1.90;;;0.30;;
69744;SDS011;57015;50.120;-5.168;2023-11-21T13:38:12;4.63;;;0.43;;
69744;SDS011;57015;50.120;-5.168;2023-11-21T13:40:39;2.40;;;0.27;;
69744;SDS011;57015;50.120;-5.168;2023-11-21T13:43:14;7.45;;;0.30;;
69744;SDS011;57015;50.120;-5.168;2023-11-21T13:45:41;2.90;;;0.57;;
69744;SDS011;57015;50.120;-5.168;2023-11-21T13:48:08;4.65;;;0.43;;
69744;SDS011;57015;50.120;-5.168;2023-11-21T13:50:38;5.35;;;0.40;;
69744;SDS011;57015;50.120;-5.168;2023-11-21T13:53:07;4.87;;;0.43;;
69744;SDS011;57015;50.120;-5.168;2023-11-21T13:55:44;3.17;;;0.60;;
69744;SDS011;57015;50.120;-5.168;2023-11-21T13:58:10;4.45;;;0.50;;
69744;SDS011;57015;50.120;-5.168;2023-11-21T14:00:41;3.25;;;0.25;;
69744;SDS011;57015;50.120;-5.168;2023-11-21T14:03:10;4.32;;;0.40;;
69744;SDS011;57015;50.120;-5.168;2023-11-21T14:05:44;4.60;;;0.40;;
69744;SDS011;57015;50.120;-5.168;2023-11-21T14:08:12;3.42;;;1.20;;
69744;SDS011;57015;50.120;-5.168;2023-11-21T14:10:41;2.35;;;0.30;;
69744;SDS011;57015;50.120;-5.168;2023-11-21T14:13:15;2.40;;;0.35;;
69744;SDS011;57015;50.120;-5.168;2023-11-21T14:15:42;4.03;;;0.30;;
69744;SDS011;57015;50.120;-5.168;2023-11-21T14:18:10;2.63;;;0.20;;
69744;SDS011;57015;50.120;-5.168;2023-11-21T14:20:39;4.03;;;0.30;;
69744;SDS011;57015;50.120;-5.168;2023-11-21T14:23:06;3.85;;;0.30;;
69744;SDS011;57015;50.120;-5.168;2023-11-21T14:25:35;4.82;;;0.47;;
69744;SDS011;57015;50.120;-5.168;2023-11-21T14:28:02;3.60;;;0.40;;
69744;SDS011;57015;50.120;-5.168;2023-11-21T14:30:31;3.13;;;0.70;;
69744;SDS011;57015;50.120;-5.168;2023-11-21T14:32:58;3.67;;;0.98;;
69744;SDS011;57015;50.120;-5.168;2023-11-21T14:35:24;6.35;;;1.50;;
69744;SDS011;57015;50.120;-5.168;2023-11-21T14:37:49;3.42;;;0.55;;
69744;SDS011;57015;50.120;-5.168;2023-11-21T14:40:15;7.27;;;0.63;;